tititudorancea.com
Station Historical Data
 
Daily Summary for May 24, 2016 Units:  Metric    English   Both
« Previous Day
Next Day »
Daily Weekly Monthly Yearly Custom
  Current: High: Low: Average:
Temperature: 11.1 °C 17.1 °C 8.1 °C 12.2 °C
Dew Point: 9.7 °C 11.8 °C 7.1 °C 9.4 °C
Humidity: 91 % 97 % 66 % 84 %
Wind Speed: 0 km/h 11.1 km/h 0 km/h 1.9 km/h
Wind Gust: 2.6 km/h 19.5 km/h - -
Wind:Calm - - SW
Pressure: 1025.3 hPa 1029 hPa 1025.3 hPa -
Precipitation: 0 mm      
Historical Graphs
 
 
Ararat weather Find more about Weather in Ararat, AU


 



 


Tabular Data for May 24, 2016
Time Temperature Dew Point Pressure Wind Wind Speed Wind Gust Humidity Rainfall Rate (Hourly)
00:03 9.1 °C 7.6 °C 1027.3 hPa West 1.1 km/h 7.2 km/h 90 % 0 mm
00:08 9.2 °C 7.7 °C 1027.3 hPa West 2.6 km/h 7.2 km/h 90 % 0 mm
00:13 9.4 °C 7.8 °C 1027.3 hPa West 2.6 km/h 7.2 km/h 90 % 0 mm
00:18 9.5 °C 7.9 °C 1027.3 hPa WSW 2.6 km/h 7.2 km/h 90 % 0 mm
00:24 9.6 °C 8.1 °C 1027 hPa West 1.1 km/h 7.2 km/h 90 % 0 mm
00:29 9.6 °C 8.1 °C 1027.3 hPa WNW 1.1 km/h 7.2 km/h 90 % 0 mm
00:34 9.5 °C 7.8 °C 1027 hPa Calm   7.2 km/h 89 % 0 mm
00:39 9.3 °C 7.6 °C 1027 hPa Calm   3.5 km/h 89 % 0 mm
00:44 9.2 °C 7.5 °C 1027 hPa Calm   2.6 km/h 89 % 0 mm
00:49 9.2 °C 7.7 °C 1027 hPa WNW 1.1 km/h 3.5 km/h 90 % 0 mm
00:54 9.1 °C 7.6 °C 1027 hPa Calm   3.5 km/h 90 % 0 mm
00:59 9 °C 7.4 °C 1027 hPa Calm   2.6 km/h 90 % 0 mm
01:04 9 °C 7.4 °C 1026.6 hPa Calm   6.1 km/h 90 % 0 mm
01:09 8.9 °C 7.4 °C 1026.6 hPa Calm   6.1 km/h 90 % 0 mm
01:14 8.8 °C 7.3 °C 1027 hPa Calm   5 km/h 90 % 0 mm
01:19 8.8 °C 7.3 °C 1027 hPa SE 1.1 km/h 2.6 km/h 90 % 0 mm
01:24 8.7 °C 7.2 °C 1026.6 hPa East 1.1 km/h 3.5 km/h 90 % 0 mm
01:29 8.6 °C 7.2 °C 1027 hPa NNW 1.1 km/h 5 km/h 91 % 0 mm
01:34 8.6 °C 7.2 °C 1027 hPa Calm   5 km/h 91 % 0 mm
01:39 8.5 °C 7.2 °C 1027 hPa WSW 1.1 km/h 3.5 km/h 91 % 0 mm
01:44 8.5 °C 7.2 °C 1026.6 hPa West 2.6 km/h 8.7 km/h 91 % 0 mm
01:49 8.7 °C 7.5 °C 1026.6 hPa West 1.1 km/h 8.7 km/h 92 % 0 mm
01:54 8.8 °C 7.6 °C 1026.6 hPa WSW 1.1 km/h 5 km/h 92 % 0 mm
01:59 8.8 °C 7.6 °C 1026.6 hPa Calm   6.1 km/h 92 % 0 mm
02:04 9 °C 7.8 °C 1026.6 hPa West 2.6 km/h 8.7 km/h 92 % 0 mm
02:09 9 °C 7.8 °C 1027 hPa Calm   8.7 km/h 92 % 0 mm
02:24 8.7 °C 7.3 °C 1026.6 hPa Calm   2.6 km/h 91 % 0 mm
02:29 8.6 °C 7.4 °C 1027 hPa Calm   2.6 km/h 92 % 0 mm
02:34 8.8 °C 7.6 °C 1026.6 hPa West 1.1 km/h 9.7 km/h 92 % 0 mm
02:39 8.7 °C 7.5 °C 1026.6 hPa WNW 2.6 km/h 9.7 km/h 92 % 0 mm
02:50 8.5 °C 7.3 °C 1027 hPa WNW 2.6 km/h 5 km/h 92 % 0 mm
02:54 8.5 °C 7.3 °C 1026.6 hPa WNW 2.6 km/h 5 km/h 92 % 0 mm
02:59 8.6 °C 7.4 °C 1026.6 hPa West 1.1 km/h 6.1 km/h 92 % 0 mm
03:04 8.9 °C 7.7 °C 1027 hPa WSW 2.6 km/h 7.2 km/h 92 % 0 mm
03:10 9.1 °C 7.9 °C 1026.6 hPa Calm   7.2 km/h 92 % 0 mm
03:15 9.1 °C 7.9 °C 1026.6 hPa WSW 2.6 km/h 8.7 km/h 92 % 0 mm
03:20 9.2 °C 8 °C 1026.6 hPa WSW 3.5 km/h 8.7 km/h 92 % 0 mm
03:25 9.3 °C 8.1 °C 1026.6 hPa WSW 2.6 km/h 6.1 km/h 92 % 0 mm
03:30 9.2 °C 8 °C 1027 hPa Calm   6.1 km/h 92 % 0 mm
03:35 9.2 °C 7.8 °C 1026.6 hPa WNW 2.6 km/h 6.1 km/h 91 % 0 mm
03:40 9.1 °C 7.7 °C 1026.6 hPa Calm   6.1 km/h 91 % 0 mm
03:45 9 °C 7.6 °C 1026.6 hPa Calm   6.1 km/h 91 % 0 mm
03:50 8.9 °C 7.6 °C 1026.6 hPa Calm   2.6 km/h 91 % 0 mm
03:55 8.7 °C 7.3 °C 1026.6 hPa Calm   3.5 km/h 91 % 0 mm
04:00 8.5 °C 7.2 °C 1026.6 hPa Calm   3.5 km/h 91 % 0 mm
04:05 8.4 °C 7.1 °C 1026.6 hPa Calm   2.6 km/h 91 % 0 mm
04:10 8.3 °C 7.1 °C 1026.6 hPa SSW 1.1 km/h 7.2 km/h 92 % 0 mm
04:15 8.4 °C 7.2 °C 1026.6 hPa Calm   7.2 km/h 92 % 0 mm
04:20 8.4 °C 7.2 °C 1026.6 hPa SW 2.6 km/h 5 km/h 92 % 0 mm
04:25 8.4 °C 7.2 °C 1026.6 hPa Calm   5 km/h 92 % 0 mm
04:30 8.5 °C 7.4 °C 1026.6 hPa Calm   12.2 km/h 93 % 0 mm
04:35 8.6 °C 7.6 °C 1026.6 hPa Calm   12.2 km/h 93 % 0 mm
04:40 8.5 °C 7.4 °C 1026.6 hPa Calm   2.6 km/h 93 % 0 mm
04:45 8.4 °C 7.4 °C 1027 hPa Calm   2.6 km/h 93 % 0 mm
04:50 8.4 °C 7.2 °C 1027 hPa Calm   2.6 km/h 92 % 0 mm
04:55 8.3 °C 7.1 °C 1027 hPa Calm   2.6 km/h 92 % 0 mm
05:00 8.3 °C 7.3 °C 1027 hPa Calm   7.2 km/h 93 % 0 mm
05:05 8.3 °C 7.3 °C 1027 hPa Calm   7.2 km/h 93 % 0 mm
05:10 8.2 °C 7.2 °C 1027 hPa Calm   2.6 km/h 93 % 0 mm
05:15 8.1 °C 7.1 °C 1027 hPa Calm   3.5 km/h 93 % 0 mm
05:20 8.2 °C 7.2 °C 1027 hPa Calm   6.1 km/h 93 % 0 mm
05:25 8.4 °C 7.5 °C 1027 hPa SW 6.1 km/h 11.1 km/h 94 % 0 mm
05:30 8.9 °C 8 °C 1027 hPa SW 1.1 km/h 11.1 km/h 94 % 0 mm
05:35 9.1 °C 8.2 °C 1027 hPa South 1.1 km/h 11.1 km/h 94 % 0 mm
05:40 9 °C 7.9 °C 1027 hPa Calm   7.2 km/h 93 % 0 mm
05:45 8.8 °C 7.8 °C 1027 hPa Calm   3.5 km/h 93 % 0 mm
05:50 8.7 °C 7.7 °C 1027 hPa Calm   2.6 km/h 93 % 0 mm
05:55 8.5 °C 7.4 °C 1027.3 hPa Calm   2.6 km/h 93 % 0 mm
06:00 8.4 °C 7.4 °C 1027.3 hPa Calm   2.6 km/h 93 % 0 mm
06:05 8.4 °C 7.4 °C 1027.3 hPa Calm   2.6 km/h 93 % 0 mm
06:10 8.3 °C 7.3 °C 1027.3 hPa Calm   1.1 km/h 93 % 0 mm
06:15 8.3 °C 7.3 °C 1027.3 hPa Calm     93 % 0 mm
06:20 8.3 °C 7.3 °C 1027.3 hPa Calm   1.1 km/h 93 % 0 mm
06:25 8.2 °C 7.3 °C 1027.3 hPa SE 1.1 km/h 2.6 km/h 94 % 0 mm
06:30 8.2 °C 7.3 °C 1027.3 hPa Calm   2.6 km/h 94 % 0 mm
06:36 8.2 °C 7.3 °C 1027.3 hPa Calm   2.6 km/h 94 % 0 mm
06:41 8.2 °C 7.3 °C 1027.7 hPa Calm   2.6 km/h 94 % 0 mm
06:46 8.2 °C 7.3 °C 1027.7 hPa Calm   2.6 km/h 94 % 0 mm
06:51 8.2 °C 7.3 °C 1027.7 hPa Calm   1.1 km/h 94 % 0 mm
06:56 8.2 °C 7.5 °C 1028 hPa Calm   1.1 km/h 95 % 0 mm
07:01 8.2 °C 7.5 °C 1028 hPa Calm   1.1 km/h 95 % 0 mm
07:03 8.2 °C 7.5 °C 1027.7 hPa Calm   2.6 km/h 95 % 0 mm
07:08 8.2 °C 7.5 °C 1028 hPa ESE 1.1 km/h 2.6 km/h 95 % 0 mm
07:13 8.3 °C 7.6 °C 1028 hPa Calm   2.6 km/h 95 % 0 mm
07:18 8.3 °C 7.6 °C 1028 hPa Calm   2.6 km/h 95 % 0 mm
07:23 8.3 °C 7.6 °C 1028 hPa Calm   3.5 km/h 95 % 0 mm
07:33 8.4 °C 7.7 °C 1028 hPa Calm   2.6 km/h 95 % 0 mm
07:38 8.4 °C 7.8 °C 1028 hPa WSW 1.1 km/h 2.6 km/h 96 % 0 mm
07:43 8.5 °C 7.9 °C 1028 hPa Calm   2.6 km/h 96 % 0 mm
07:48 8.6 °C 8 °C 1028 hPa Calm   2.6 km/h 96 % 0 mm
07:53 8.6 °C 8 °C 1028.3 hPa Calm   2.6 km/h 96 % 0 mm
07:58 8.7 °C 8.1 °C 1028.3 hPa Calm   2.6 km/h 96 % 0 mm
08:09 8.9 °C 8.3 °C 1028.3 hPa Calm   1.1 km/h 96 % 0 mm
08:14 9 °C 8.6 °C 1028.7 hPa ENE 1.1 km/h 2.6 km/h 97 % 0 mm
08:24 9.2 °C 8.8 °C 1028.7 hPa Calm   2.6 km/h 97 % 0 mm
08:29 9.5 °C 9.1 °C 1028.7 hPa Calm   2.6 km/h 97 % 0 mm
08:34 9.7 °C 9.3 °C 1028.7 hPa NE 1.1 km/h 3.5 km/h 97 % 0 mm
08:39 9.9 °C 9.4 °C 1028.7 hPa SSE 2.6 km/h 7.2 km/h 97 % 0 mm
08:44 10.2 °C 9.7 °C 1028.7 hPa SSW 2.6 km/h 8.7 km/h 97 % 0 mm
08:49 10.4 °C 9.9 °C 1028.7 hPa South 3.5 km/h 8.7 km/h 97 % 0 mm
08:54 10.7 °C 10.2 °C 1028.7 hPa South 3.5 km/h 12.2 km/h 97 % 0 mm
08:59 10.8 °C 10.3 °C 1028.7 hPa Calm   12.2 km/h 97 % 0 mm
09:04 11 °C 10.4 °C 1028.7 hPa SSW 7.2 km/h 12.2 km/h 96 % 0 mm
09:09 11.2 °C 10.4 °C 1028.7 hPa SSW 3.5 km/h 13.4 km/h 95 % 0 mm
09:14 11.4 °C 10.6 °C 1028.7 hPa SSW 3.5 km/h 13.4 km/h 95 % 0 mm
09:19 11.6 °C 10.5 °C 1028.7 hPa SW 3.5 km/h 12.2 km/h 93 % 0 mm
09:24 11.8 °C 10.5 °C 1028.7 hPa SW 7.2 km/h 11.1 km/h 92 % 0 mm
09:29 11.9 °C 10.4 °C 1028.7 hPa SW 7.2 km/h 13.4 km/h 90 % 0 mm
09:34 12.2 °C 10.2 °C 1028.7 hPa SW 2.6 km/h 19.5 km/h 88 % 0 mm
09:39 12.6 °C 10.1 °C 1028.7 hPa SW 3.5 km/h 19.5 km/h 85 % 0 mm
09:44 12.9 °C 9.9 °C 1028.7 hPa SW 7.2 km/h 14.8 km/h 82 % 0 mm
09:49 13.1 °C 9.5 °C 1028.7 hPa WSW 8.7 km/h 18.3 km/h 79 % 0 mm
09:54 13.1 °C 9.6 °C 1029 hPa WSW 6.1 km/h 18.3 km/h 79 % 0 mm
09:59 13.3 °C 9.6 °C 1028.7 hPa WSW 8.7 km/h 15.8 km/h 78 % 0 mm
10:04 13.3 °C 9.2 °C 1028.7 hPa WSW 6.1 km/h 17.2 km/h 76 % 0 mm
10:09 13.4 °C 9.3 °C 1028.7 hPa SW 6.1 km/h 18.3 km/h 76 % 0 mm
10:14 13.4 °C 9.3 °C 1028.7 hPa SW 7.2 km/h 18.3 km/h 76 % 0 mm
10:19 13.5 °C 9.2 °C 1028.7 hPa WSW 11.1 km/h 17.2 km/h 75 % 0 mm
10:24 13.6 °C 9.3 °C 1028.7 hPa WSW 7.2 km/h 17.2 km/h 75 % 0 mm
10:29 13.6 °C 9.3 °C 1028.7 hPa WSW 5 km/h 14.8 km/h 75 % 0 mm
10:34 13.8 °C 9.4 °C 1028.7 hPa West 7.2 km/h 14.8 km/h 75 % 0 mm
10:39 14.2 °C 10.1 °C 1028.7 hPa WNW 2.6 km/h 12.2 km/h 76 % 0 mm
10:44 14.4 °C 10.1 °C 1028.7 hPa West 8.7 km/h 13.4 km/h 75 % 0 mm
10:49 14.6 °C 10.2 °C 1028.7 hPa West 6.1 km/h 13.4 km/h 75 % 0 mm
10:54 14.6 °C 10 °C 1028.7 hPa West 3.5 km/h 13.4 km/h 74 % 0 mm
10:59 15 °C 10.8 °C 1028.7 hPa West 5 km/h 12.2 km/h 76 % 0 mm
11:04 15.3 °C 10.3 °C 1028.3 hPa WNW 2.6 km/h 13.4 km/h 72 % 0 mm
11:09 15.2 °C 10 °C 1028 hPa West 3.5 km/h 13.4 km/h 71 % 0 mm
11:14 15 °C 9.6 °C 1028 hPa SW 2.6 km/h 11.1 km/h 70 % 0 mm
11:19 15.3 °C 10.3 °C 1028 hPa WSW 3.5 km/h 11.1 km/h 72 % 0 mm
11:25 15.5 °C 10.4 °C 1027.7 hPa WNW 3.5 km/h 8.7 km/h 72 % 0 mm
11:30 15.4 °C 9.9 °C 1027.7 hPa SW 5 km/h 12.2 km/h 70 % 0 mm
11:35 15.5 °C 10.4 °C 1027.7 hPa SW 6.1 km/h 12.2 km/h 72 % 0 mm
11:40 15.7 °C 10.7 °C 1027.7 hPa WNW 5 km/h 13.4 km/h 72 % 0 mm
11:45 16.2 °C 11.1 °C 1027.7 hPa NW 2.6 km/h 13.4 km/h 72 % 0 mm
11:50 16.1 °C 10.4 °C 1027.7 hPa WNW 3.5 km/h 12.2 km/h 69 % 0 mm
11:55 16 °C 10.3 °C 1027.3 hPa WSW 3.5 km/h 12.2 km/h 69 % 0 mm
12:00 15.9 °C 10 °C 1027 hPa SW 2.6 km/h 9.7 km/h 68 % 0 mm
12:05 15.9 °C 10 °C 1027.3 hPa SSW 7.2 km/h 14.8 km/h 68 % 0 mm
12:10 15.9 °C 10.2 °C 1027 hPa SW 3.5 km/h 14.8 km/h 69 % 0 mm
12:15 16.1 °C 10.6 °C 1027 hPa WSW 1.1 km/h 14.8 km/h 70 % 0 mm
12:20 16.3 °C 10.6 °C 1027 hPa SW 2.6 km/h 9.7 km/h 69 % 0 mm
12:25 16.4 °C 10.4 °C 1027 hPa West 3.5 km/h 14.8 km/h 68 % 0 mm
12:30 16.3 °C 10.1 °C 1027 hPa West 6.1 km/h 14.8 km/h 67 % 0 mm
12:45 16.2 °C 10.5 °C 1027 hPa SW 5 km/h 17.2 km/h 69 % 0 mm
12:50 16.3 °C 10.6 °C 1027 hPa SW 7.2 km/h 13.4 km/h 69 % 0 mm
12:55 16.4 °C 10.7 °C 1026.6 hPa SW 3.5 km/h 13.4 km/h 69 % 0 mm
13:00 16.4 °C 10.4 °C 1026.6 hPa WSW 5 km/h 12.2 km/h 68 % 0 mm
13:05 16.1 °C 10.2 °C 1026.3 hPa SSW 5 km/h 15.8 km/h 68 % 0 mm
13:10 16.1 °C 10.4 °C 1026.3 hPa SSW 2.6 km/h 15.8 km/h 69 % 0 mm
13:15 15.8 °C 10.1 °C 1026.3 hPa SSW 3.5 km/h 9.7 km/h 69 % 0 mm
13:20 15.7 °C 10.2 °C 1026 hPa SSW 1.1 km/h 11.1 km/h 70 % 0 mm
13:25 15.5 °C 10.1 °C 1026 hPa SW 3.5 km/h 11.1 km/h 70 % 0 mm
13:30 15.5 °C 10.3 °C 1026 hPa Calm   11.1 km/h 71 % 0 mm
13:35 15.7 °C 10.7 °C 1026 hPa West 2.6 km/h 8.7 km/h 72 % 0 mm
13:40 16.2 °C 11.1 °C 1026 hPa NW 1.1 km/h 7.2 km/h 72 % 0 mm
13:50 16.7 °C 11.2 °C 1025.6 hPa West 1.1 km/h 9.7 km/h 70 % 0 mm
13:55 16.8 °C 10.9 °C 1025.6 hPa SW 5 km/h 12.2 km/h 68 % 0 mm
14:00 17.1 °C 11.1 °C 1025.6 hPa SW 6.1 km/h 12.2 km/h 68 % 0 mm
14:05 16.9 °C 10.6 °C 1026 hPa SW 9.7 km/h 14.8 km/h 66 % 0 mm
14:10 16.8 °C 10.9 °C 1026 hPa WSW 7.2 km/h 14.8 km/h 68 % 0 mm
14:15 16.8 °C 11.2 °C 1025.6 hPa West 3.5 km/h 13.4 km/h 69 % 0 mm
14:20 16.7 °C 10.7 °C 1025.6 hPa WNW 5 km/h 13.4 km/h 68 % 0 mm
14:25 16.7 °C 10.9 °C 1026 hPa WNW 3.5 km/h 12.2 km/h 69 % 0 mm
14:30 16.7 °C 10.7 °C 1025.6 hPa West 2.6 km/h 12.2 km/h 68 % 0 mm
14:35 16.6 °C 10.4 °C 1025.6 hPa WSW 6.1 km/h 12.2 km/h 67 % 0 mm
14:40 16.4 °C 10.8 °C 1026 hPa West 2.6 km/h 12.2 km/h 69 % 0 mm
14:45 16.4 °C 10.8 °C 1025.6 hPa West 6.1 km/h 11.1 km/h 69 % 0 mm
14:50 16.4 °C 10.7 °C 1025.6 hPa WSW 3.5 km/h 13.4 km/h 69 % 0 mm
14:55 16.3 °C 10.6 °C 1025.6 hPa WSW 3.5 km/h 13.4 km/h 69 % 0 mm
15:00 16.2 °C 10.7 °C 1025.6 hPa WSW 1.1 km/h 7.2 km/h 70 % 0 mm
15:05 16.1 °C 10.4 °C 1025.6 hPa SW 6.1 km/h 11.1 km/h 69 % 0 mm
15:10 16 °C 10.5 °C 1025.6 hPa SW 2.6 km/h 11.1 km/h 70 % 0 mm
15:15 16 °C 10.7 °C 1025.6 hPa WSW 1.1 km/h 9.7 km/h 71 % 0 mm
15:20 16.2 °C 10.9 °C 1025.6 hPa WNW 2.6 km/h 8.7 km/h 71 % 0 mm
15:25 16.2 °C 10.9 °C 1025.6 hPa WSW 3.5 km/h 8.7 km/h 71 % 0 mm
15:30 16.1 °C 10.8 °C 1025.6 hPa SW 5 km/h 8.7 km/h 71 % 0 mm
15:35 16 °C 10.7 °C 1025.6 hPa WSW 2.6 km/h 8.7 km/h 71 % 0 mm
15:40 15.9 °C 10.6 °C 1025.6 hPa WSW 2.6 km/h 8.7 km/h 71 % 0 mm
15:45 15.8 °C 10.7 °C 1025.6 hPa WSW 2.6 km/h 11.1 km/h 72 % 0 mm
15:50 15.7 °C 10.7 °C 1025.6 hPa WSW 1.1 km/h 11.1 km/h 72 % 0 mm
15:55 15.7 °C 10.7 °C 1025.6 hPa West 1.1 km/h 6.1 km/h 72 % 0 mm
16:00 15.7 °C 10.7 °C 1025.6 hPa SW 3.5 km/h 6.1 km/h 72 % 0 mm
16:05 15.7 °C 10.8 °C 1025.6 hPa Calm   6.1 km/h 73 % 0 mm
16:10 15.7 °C 10.7 °C 1025.6 hPa SW 1.1 km/h 6.1 km/h 72 % 0 mm
16:15 15.7 °C 10.8 °C 1025.3 hPa SW 2.6 km/h 6.1 km/h 73 % 0 mm
16:20 15.7 °C 10.8 °C 1025.3 hPa Calm   6.1 km/h 73 % 0 mm
16:25 15.7 °C 10.8 °C 1025.3 hPa Calm   5 km/h 73 % 0 mm
16:31 15.6 °C 10.8 °C 1025.3 hPa West 1.1 km/h 3.5 km/h 73 % 0 mm
16:36 15.7 °C 10.8 °C 1025.3 hPa WSW 2.6 km/h 6.1 km/h 73 % 0 mm
16:41 15.6 °C 10.8 °C 1025.3 hPa West 2.6 km/h 6.1 km/h 73 % 0 mm
16:46 15.6 °C 10.9 °C 1025.3 hPa North 2.6 km/h 5 km/h 74 % 0 mm
16:51 15.5 °C 10.7 °C 1025.6 hPa WSW 1.1 km/h 5 km/h 73 % 0 mm
16:56 15.4 °C 10.8 °C 1025.6 hPa SW 2.6 km/h 6.1 km/h 74 % 0 mm
17:01 15.3 °C 10.7 °C 1025.6 hPa SW 1.1 km/h 6.1 km/h 74 % 0 mm
17:06 15.2 °C 10.6 °C 1025.6 hPa SW 2.6 km/h 7.2 km/h 74 % 0 mm
17:11 15.1 °C 10.5 °C 1025.6 hPa SW 1.1 km/h 7.2 km/h 74 % 0 mm
17:16 15.1 °C 10.7 °C 1025.6 hPa Calm   6.1 km/h 75 % 0 mm
17:21 15 °C 10.6 °C 1025.6 hPa Calm   3.5 km/h 75 % 0 mm
17:26 15 °C 10.6 °C 1026 hPa WSW 1.1 km/h 3.5 km/h 75 % 0 mm
17:31 14.9 °C 10.7 °C 1025.6 hPa WNW 1.1 km/h 2.6 km/h 76 % 0 mm
17:36 14.8 °C 10.6 °C 1025.6 hPa Calm   2.6 km/h 76 % 0 mm
17:41 14.8 °C 10.8 °C 1025.6 hPa Calm   2.6 km/h 77 % 0 mm
17:51 14.6 °C 10.6 °C 1026 hPa Calm   1.1 km/h 77 % 0 mm
17:56 14.5 °C 10.7 °C 1026 hPa SSE 1.1 km/h 2.6 km/h 78 % 0 mm
18:01 14.5 °C 10.7 °C 1025.6 hPa East 1.1 km/h 2.6 km/h 78 % 0 mm
18:06 14.5 °C 10.9 °C 1025.6 hPa Calm   2.6 km/h 79 % 0 mm
18:11 14.4 °C 10.8 °C 1026 hPa Calm   2.6 km/h 79 % 0 mm
18:16 14.4 °C 10.8 °C 1025.6 hPa Calm   2.6 km/h 79 % 0 mm
18:21 14.3 °C 10.9 °C 1025.6 hPa East 2.6 km/h 3.5 km/h 80 % 0 mm
18:26 14.2 °C 11 °C 1025.6 hPa Calm   3.5 km/h 81 % 0 mm
18:31 14.1 °C 10.9 °C 1026 hPa Calm   3.5 km/h 81 % 0 mm
18:36 14.1 °C 11.1 °C 1025.6 hPa Calm   2.6 km/h 82 % 0 mm
18:42 14.1 °C 11.3 °C 1025.6 hPa Calm   2.6 km/h 83 % 0 mm
18:47 14.1 °C 11.4 °C 1026 hPa Calm   1.1 km/h 84 % 0 mm
18:52 14 °C 11.3 °C 1026 hPa Calm   2.6 km/h 84 % 0 mm
18:57 14 °C 11.3 °C 1026 hPa Calm   2.6 km/h 84 % 0 mm
19:02 13.9 °C 11.3 °C 1026 hPa Calm   1.1 km/h 84 % 0 mm
19:07 13.7 °C 11.1 °C 1026 hPa Calm     84 % 0 mm
19:12 13.7 °C 11.1 °C 1026 hPa Calm   1.1 km/h 84 % 0 mm
19:17 13.7 °C 11.2 °C 1026.3 hPa NW 1.1 km/h 2.6 km/h 85 % 0 mm
19:22 13.7 °C 11.4 °C 1026.3 hPa NW 1.1 km/h 2.6 km/h 86 % 0 mm
19:27 13.7 °C 11.4 °C 1026.3 hPa Calm   2.6 km/h 86 % 0 mm
19:32 13.7 °C 11.6 °C 1026.3 hPa Calm   2.6 km/h 87 % 0 mm
19:37 13.7 °C 11.6 °C 1026.6 hPa Calm     87 % 0 mm
19:42 13.7 °C 11.6 °C 1026.3 hPa Calm     87 % 0 mm
19:47 13.7 °C 11.6 °C 1026.3 hPa Calm     87 % 0 mm
19:52 13.7 °C 11.8 °C 1026 hPa Calm     88 % 0 mm
19:57 13.7 °C 11.8 °C 1026 hPa NNE 1.1 km/h 2.6 km/h 88 % 0 mm
20:02 13.7 °C 11.8 °C 1026.3 hPa NNE 1.1 km/h 5 km/h 88 % 0 mm
20:07 13.6 °C 11.7 °C 1026 hPa Calm   5 km/h 88 % 0 mm
20:12 13.6 °C 11.7 °C 1026 hPa Calm   3.5 km/h 88 % 0 mm
20:17 13.5 °C 11.6 °C 1025.6 hPa NE 1.1 km/h 3.5 km/h 88 % 0 mm
20:22 13.3 °C 11.4 °C 1025.6 hPa Calm   3.5 km/h 88 % 0 mm
20:27 13.2 °C 11.3 °C 1025.6 hPa ENE 1.1 km/h 3.5 km/h 88 % 0 mm
20:32 13.1 °C 10.9 °C 1025.3 hPa Calm   3.5 km/h 87 % 0 mm
20:37 12.7 °C 10.6 °C 1025.6 hPa North 1.1 km/h 3.5 km/h 87 % 0 mm
20:42 12.6 °C 10.4 °C 1025.6 hPa NNW 1.1 km/h 3.5 km/h 87 % 0 mm
20:47 12.2 °C 10.2 °C 1025.6 hPa NW 1.1 km/h 3.5 km/h 87 % 0 mm
20:52 12.2 °C 10.2 °C 1025.3 hPa Calm   3.5 km/h 88 % 0 mm
20:57 11.9 °C 10.1 °C 1025.6 hPa Calm   3.5 km/h 88 % 0 mm
21:02 11.8 °C 9.8 °C 1025.6 hPa Calm   2.6 km/h 88 % 0 mm
21:07 11.7 °C 9.7 °C 1025.6 hPa Calm   2.6 km/h 88 % 0 mm
21:12 11.6 °C 9.8 °C 1025.3 hPa NNW 1.1 km/h 2.6 km/h 89 % 0 mm
21:17 11.4 °C 9.7 °C 1025.3 hPa Calm   2.6 km/h 89 % 0 mm
21:22 11.4 °C 9.6 °C 1025.3 hPa Calm   3.5 km/h 89 % 0 mm
21:27 11.2 °C 9.4 °C 1025.3 hPa WNW 1.1 km/h 3.5 km/h 89 % 0 mm
21:32 11.1 °C 9.5 °C 1025.3 hPa Calm   3.5 km/h 90 % 0 mm
21:37 11 °C 9.4 °C 1025.3 hPa Calm   3.5 km/h 90 % 0 mm
21:42 11.1 °C 9.7 °C 1025.3 hPa Calm   2.6 km/h 91 % 0 mm
Ararat Weather
Compliments of Weather Underground - 1.75 mb
Click here to send mail.


ABOUT

Live weather data from Ararat, Victoria, Australia, 3377
Data uploaded from Cumulus every 5 minutes to Weather Underground.
This site then downloads the raw data for formatting and display.
Metric and imperial data can be displayed. Graphs and historical data available.
Includes Sun and Moon times and rain image live from BOM.

Check out Ararat Weather on Facebook, Twitter and Google +

Help support ongoing costs by checking out the ads





Follow @AraratWeather